M I D A S
Marine Information and Data Acquisition System
Tripno 582 of the Zeeleeuw from 2003-09-03 06:16:07 to 2003-09-03 13:32:51
Back to CruiseResearch ActivitiesStationsMapUnderway DataData graphs

EquipmentUnitsComment
TimeDGPSUTC
LatitudeDGPSDM.mWGS84
LongitudeDGPSDM.mWGS84
HeadingGyrodeg 
SOGDGPSknotsSpeed over ground
COGDGPSdegCourse over ground
DepthEcho soundermeters200 kHz
Missing or incorrect values are displayed as -999
Navigation data collected by the RV Zeeleeuw from 2003-09-03 06:16:07 to 2003-09-03 13:32:51
Time Latitude Longitude Heading SOG COG Depth
2003-09-03 06:17:09 51°13.88 2°55.59 339.5 7.4 334 13.1
2003-09-03 06:18:15 51°14.01 2°55.51 341.1 7.7 336 13.1
2003-09-03 06:19:15 51°14.13 2°55.42 339.5 8.3 334 13
2003-09-03 06:20:15 51°14.26 2°55.27 322.4 10.9 315 13.4
2003-09-03 06:21:15 51°14.38 2°55.04 313 11.5 308 13.5
2003-09-03 06:22:15 51°14.54 2°54.88 334.3 12.1 334 11.9
2003-09-03 06:23:15 51°14.72 2°54.72 331.6 12.5 331 11.5
2003-09-03 06:24:15 51°14.91 2°54.57 332.7 12.6 332 11.3
2003-09-03 06:25:15 51°15.09 2°54.4 332.4 12.7 330 10.8
2003-09-03 06:26:15 51°15.28 2°54.24 334.4 12.7 332 11.2
2003-09-03 06:27:15 51°15.47 2°54.07 332.5 13.7 331 12.1
2003-09-03 06:28:15 51°15.67 2°53.89 333.1 14 333 12.9
2003-09-03 06:29:15 51°15.89 2°53.74 337.3 14.1 336 13.6
2003-09-03 06:30:15 51°16.1 2°53.59 336.7 14.1 336 14.1
2003-09-03 06:31:15 51°16.31 2°53.43 336.1 13.9 335 14.3
2003-09-03 06:32:15 51°16.52 2°53.27 335.1 13.9 334 14.1
2003-09-03 06:33:23 51°16.75 2°53.08 332.7 13.9 331 13.1
2003-09-03 06:34:23 51°16.95 2°52.9 329.6 13.8 327 10.7
2003-09-03 06:35:23 51°17.14 2°52.68 325.7 13.9 324 11.3
2003-09-03 06:36:27 51°17.34 2°52.44 324.3 13.9 323 12.3
2003-09-03 06:37:27 51°17.52 2°52.22 323.1 13.9 321 12.1
2003-09-03 06:38:27 51°17.7 2°51.99 324.1 14 323 12.4
2003-09-03 06:39:27 51°17.89 2°51.76 324 14 322 12.4
2003-09-03 06:40:27 51°18.07 2°51.54 324.7 13.9 323 13
2003-09-03 06:41:27 51°18.26 2°51.31 324.4 14 323 14.4
2003-09-03 06:42:27 51°18.44 2°51.09 324.2 13.9 323 15.5
2003-09-03 06:43:27 51°18.63 2°50.87 324.2 13.9 323 16.2
2003-09-03 06:44:27 51°18.81 2°50.64 324.1 13.9 322 16.4
2003-09-03 06:45:27 51°19 2°50.42 324.3 13.9 322 15.8
2003-09-03 06:46:27 51°19.18 2°50.19 324 13.8 321 13.7
2003-09-03 06:47:27 51°19.36 2°49.96 324.3 13.9 322 13.8
2003-09-03 06:48:27 51°19.54 2°49.73 324.3 13.9 323 15.5
2003-09-03 06:49:27 51°19.73 2°49.51 324.1 13.8 323 17.9
2003-09-03 06:50:27 51°19.91 2°49.29 323.9 13.9 323 20.5
2003-09-03 06:51:27 51°20.1 2°49.07 324.3 13.9 323 23.3
2003-09-03 06:52:27 51°20.28 2°48.85 324.8 13.9 324 24.1
2003-09-03 06:53:27 51°20.47 2°48.63 324.3 13.9 322 24.4
2003-09-03 06:54:27 51°20.65 2°48.4 324.9 13.9 323 23
2003-09-03 06:55:27 51°20.82 2°48.17 322.2 13.9 319 21.7
2003-09-03 06:56:27 51°21 2°47.93 321.9 13.8 320 20.7
2003-09-03 06:57:27 51°21.17 2°47.69 320.8 13.7 318 21.7
2003-09-03 06:58:27 51°21.34 2°47.45 319.7 13.6 317 24.5
2003-09-03 06:59:27 51°21.51 2°47.2 320.3 13.7 319 25.9
2003-09-03 07:00:27 51°21.69 2°46.98 324.6 13.9 323 25.9
2003-09-03 07:01:27 51°21.88 2°46.75 324.2 14 324 25.7
2003-09-03 07:02:27 51°22.06 2°46.53 323.7 13.9 322 23.2
2003-09-03 07:03:27 51°22.25 2°46.31 324.1 14 322 21.4
2003-09-03 07:04:33 51°22.45 2°46.06 324.4 14.1 322 23.5
2003-09-03 07:05:33 51°22.63 2°45.83 324.5 14 321 25.6
2003-09-03 07:06:35 51°22.82 2°45.59 324 14 321 27.1
2003-09-03 07:07:35 51°23.01 2°45.36 325 14 322 28.3
2003-09-03 07:08:33 51°23.18 2°45.14 324.2 13.9 322 28.1
2003-09-03 07:09:31 51°23.36 2°44.92 324.3 14 323 27.6
2003-09-03 07:10:31 51°23.55 2°44.7 324.2 13.9 322 26.9
2003-09-03 07:11:33 51°23.74 2°44.46 324.6 14 323 28.5
2003-09-03 07:12:31 51°23.92 2°44.24 323.9 13.9 323 28.2
2003-09-03 07:13:33 51°24.11 2°44.02 324.3 14 322 25.5
2003-09-03 07:14:35 51°24.3 2°43.79 324.4 13.9 323 28.3
2003-09-03 07:15:33 51°24.48 2°43.57 324.8 13.9 322 26.5
2003-09-03 07:16:31 51°24.66 2°43.35 324.4 14 323 22.3
2003-09-03 07:17:33 51°24.85 2°43.12 324.5 14 323 20.5
2003-09-03 07:18:31 51°25.03 2°42.9 324.2 14 323 26.3
2003-09-03 07:19:33 51°25.23 2°42.67 324.6 14.2 323 26.9
2003-09-03 07:20:33 51°25.41 2°42.45 324.1 14 322 24.7
2003-09-03 07:21:35 51°25.61 2°42.22 324.2 14.2 323 26.3
2003-09-03 07:22:33 51°25.79 2°42 323.6 14.1 322 28.2
2003-09-03 07:23:33 51°25.98 2°41.77 324.2 14.2 323 29.8
2003-09-03 07:24:33 51°26.17 2°41.54 324.1 14.2 323 29.4
2003-09-03 07:25:31 51°26.35 2°41.32 324.2 14.1 323 29.9
2003-09-03 07:26:33 51°26.54 2°41.09 324.5 14.1 323 32.5
2003-09-03 07:27:33 51°26.73 2°40.87 324.4 14 325 33
2003-09-03 07:28:31 51°26.91 2°40.66 324.2 13.9 325 32.3
2003-09-03 07:29:35 51°27.05 2°40.44 286.8 7.4 286 32.8
2003-09-03 07:30:31 51°27.04 2°40.3 253.8 4.7 261 32.8
2003-09-03 07:31:33 51°27.02 2°40.19 244 4.3 247 33.5
2003-09-03 07:32:33 51°26.99 2°40.08 243.8 4.5 250 35.3
2003-09-03 07:33:33 51°26.97 2°40.02 245.2 0.6 294 33.5
2003-09-03 07:34:33 51°26.98 2°40.01 253.9 0.6 302 33.9
2003-09-03 07:35:31 51°26.99 2°39.99 262.2 0.6 317 34.2
2003-09-03 07:36:31 51°27 2°39.98 268.5 0.7 330 34.1
2003-09-03 07:37:39 51°27.01 2°39.98 275.8 0.8 341 33.9
2003-09-03 07:38:39 51°27.03 2°39.97 283.6 1 352 34.4
2003-09-03 07:39:39 51°27.05 2°39.95 297.5 3.3 313 35.2
2003-09-03 07:40:39 51°27.13 2°39.93 15 5.4 20 34.1
2003-09-03 07:41:39 51°27.17 2°40.04 94.9 5.4 82 36.1
2003-09-03 07:42:39 51°27.16 2°40.19 126.8 5.5 113 33.7
2003-09-03 07:43:39 51°27.1 2°40.28 162.6 4.9 152 32.7
2003-09-03 07:44:39 51°27.02 2°40.3 198.8 4.7 191 33
2003-09-03 07:45:45 51°26.95 2°40.25 217 3.9 213 32.5
2003-09-03 07:46:51 51°26.9 2°40.17 228.1 3.7 226 32.2
2003-09-03 07:47:51 51°26.87 2°40.1 232.2 3.3 234 32.6
2003-09-03 07:48:51 51°26.84 2°40.03 235 3 238 32.5
2003-09-03 07:49:51 51°26.81 2°39.97 236.9 2.7 243 32.1
2003-09-03 07:50:51 51°26.79 2°39.91 238.9 2.3 249 32.9
2003-09-03 07:51:51 51°26.78 2°39.85 237.5 2.1 246 34.2
2003-09-03 07:52:51 51°26.76 2°39.81 230.9 2.1 233 33.9
2003-09-03 07:53:51 51°26.74 2°39.76 230 2.2 232 32.9
2003-09-03 07:54:51 51°26.72 2°39.71 235.6 2.3 245 33.5
2003-09-03 07:56:01 51°26.7 2°39.65 240.9 2.3 243 32.9
2003-09-03 07:56:59 51°26.69 2°39.59 244 2.4 253 32.8
2003-09-03 07:58:05 51°26.68 2°39.52 242.5 2.3 249 33.5
2003-09-03 07:59:09 51°26.66 2°39.46 237.5 2.2 243 33.4
2003-09-03 08:00:09 51°26.64 2°39.41 231.9 2.2 240 33.8
2003-09-03 08:01:09 51°26.62 2°39.36 232.9 2.2 236 35
2003-09-03 08:02:15 51°26.6 2°39.31 231.1 2.3 234 34.9
2003-09-03 08:03:15 51°26.57 2°39.26 227.9 2.3 227 35.3
2003-09-03 08:04:15 51°26.55 2°39.22 225.2 2.3 222 33.9
2003-09-03 08:05:15 51°26.52 2°39.18 222.6 2.3 222 33.8
2003-09-03 08:06:15 51°26.49 2°39.14 219.7 2.3 220 34.2
2003-09-03 08:07:15 51°26.46 2°39.1 217.5 2.4 216 34.7
2003-09-03 08:08:15 51°26.43 2°39.06 225.5 2.4 230 34.9
2003-09-03 08:09:15 51°26.4 2°39.01 233.5 2.4 233 34.4
2003-09-03 08:10:15 51°26.38 2°38.95 234.7 2.4 236 33.9
2003-09-03 08:11:19 51°26.36 2°38.89 227.9 2.4 229 34.2
2003-09-03 08:12:19 51°26.33 2°38.85 217.9 2.4 217 34.3
2003-09-03 08:13:19 51°26.29 2°38.82 211.3 2.4 206 34.5
2003-09-03 08:14:19 51°26.26 2°38.78 219.8 2.4 220 34.8
2003-09-03 08:15:19 51°26.23 2°38.73 228.4 2.5 228 34.6
2003-09-03 08:16:19 51°26.21 2°38.68 237 2.6 237 34.5
2003-09-03 08:17:19 51°26.19 2°38.62 244.5 2.6 251 32.9
2003-09-03 08:18:19 51°26.18 2°38.56 252.7 2.2 262 33.1
2003-09-03 08:19:19 51°26.18 2°38.5 260.3 1.9 277 33.1
2003-09-03 08:20:19 51°26.18 2°38.46 267.4 1.6 284 33.3
2003-09-03 08:21:19 51°26.19 2°38.42 276.8 1.7 293 33.3
2003-09-03 08:22:19 51°26.21 2°38.37 280.8 2 295 33
2003-09-03 08:23:19 51°26.22 2°38.32 284.5 2 293 32.7
2003-09-03 08:24:19 51°26.24 2°38.27 285.5 2.5 296 32.7
2003-09-03 08:25:19 51°26.26 2°38.16 283 5.8 285 32.8
2003-09-03 08:26:25 51°26.29 2°38.02 284.2 4.1 290 32.3
2003-09-03 08:27:25 51°26.31 2°37.94 283.4 2.9 291 32.5
2003-09-03 08:28:27 51°26.32 2°37.87 276.2 2.2 293 33.1
2003-09-03 08:29:29 51°26.33 2°37.82 269.1 2.2 282 33.5
2003-09-03 08:30:29 51°26.32 2°37.72 246.8 6.9 245 33.5
2003-09-03 08:31:35 51°26.22 2°37.47 232.9 12 233 33
2003-09-03 08:32:35 51°26.09 2°37.22 230 12.5 227 33.3
2003-09-03 08:33:35 51°25.94 2°36.99 221.8 12.4 222 33.8
2003-09-03 08:34:35 51°25.79 2°36.77 223.5 12.3 223 34.3
2003-09-03 08:35:45 51°25.61 2°36.52 223.2 12.5 221 33.5
2003-09-03 08:36:49 51°25.42 2°36.34 200.4 12.3 198 33.3
2003-09-03 08:37:55 51°25.21 2°36.24 198.2 12 195 33.9
2003-09-03 08:38:55 51°25.02 2°36.15 199.3 12.3 199 33.6
2003-09-03 08:39:59 51°24.83 2°35.97 215.3 12.2 214 32.9
2003-09-03 08:41:05 51°24.65 2°35.77 215.3 12.3 213 33
2003-09-03 08:42:05 51°24.48 2°35.57 218.4 12.5 216 34.5
2003-09-03 08:43:05 51°24.31 2°35.39 214.2 12.3 213 32.6
2003-09-03 08:44:05 51°24.14 2°35.21 214.2 12.6 214 33.4
2003-09-03 08:45:09 51°23.97 2°34.97 225.5 12.7 224 35.2
2003-09-03 08:46:09 51°23.83 2°34.72 229.5 12.8 231 34.1
2003-09-03 08:47:19 51°23.66 2°34.42 230.2 13 229 32.3
2003-09-03 08:48:19 51°23.52 2°34.16 230.5 12.9 228 32.2
2003-09-03 08:49:19 51°23.38 2°33.9 229.6 12.9 228 31.9
2003-09-03 08:50:19 51°23.24 2°33.64 228.8 13.1 227 31.7
2003-09-03 08:51:19 51°23.09 2°33.38 228.6 13 229 31.5
2003-09-03 08:52:25 51°22.93 2°33.09 229.9 13.2 229 31
2003-09-03 08:53:25 51°22.79 2°32.83 229.2 13.1 228 31.4
2003-09-03 08:54:25 51°22.64 2°32.57 229.2 13.2 228 31.3
2003-09-03 08:55:31 51°22.48 2°32.28 229.3 13.2 228 31.1
2003-09-03 08:56:29 51°22.34 2°32.03 229.3 13.2 228 31.5
2003-09-03 08:57:29 51°22.19 2°31.77 229.7 13.1 227 31.2
2003-09-03 08:58:29 51°22.04 2°31.5 229.6 13.4 229 29.2
2003-09-03 08:59:39 51°21.87 2°31.2 228.8 13.2 228 29.7
2003-09-03 09:35:36 51°17.85 2°27.66 222.4 4.8 230 20.6
2003-09-03 09:36:37 51°17.81 2°27.56 229.9 4.4 235 21.5
2003-09-03 09:37:37 51°17.77 2°27.48 212.2 3.4 223 21.8
2003-09-03 09:38:37 51°17.73 2°27.43 194.2 2.4 213 21.7
2003-09-03 09:39:37 51°17.7 2°27.4 191.9 2.3 210 21.4
2003-09-03 09:40:37 51°17.67 2°27.36 210 2.3 227 21.2
2003-09-03 09:41:37 51°17.64 2°27.32 206.1 2.3 228 21.7
2003-09-03 09:42:37 51°17.62 2°27.29 191.3 1.9 214 21.7
2003-09-03 09:43:37 51°17.59 2°27.25 195 2.2 215 21.7
2003-09-03 09:44:37 51°17.56 2°27.21 204.4 2.3 220 22
2003-09-03 09:45:37 51°17.53 2°27.17 205.6 2.4 224 20.5
2003-09-03 09:46:37 51°17.5 2°27.12 204.6 2.4 222 20.8
2003-09-03 09:47:37 51°17.47 2°27.08 201.8 2.3 218 21.5
2003-09-03 09:48:37 51°17.44 2°27.04 202.5 2.4 221 20.6
2003-09-03 09:49:37 51°17.41 2°27 203.9 2.4 222 20.9
2003-09-03 09:50:37 51°17.38 2°26.96 203.8 2.4 222 19.3
2003-09-03 09:51:37 51°17.35 2°26.91 203.3 2.5 223 19.1
2003-09-03 09:52:37 51°17.32 2°26.87 205.3 2.3 223 20
2003-09-03 09:53:37 51°17.3 2°26.83 204.8 2.3 223 21.4
2003-09-03 09:54:37 51°17.27 2°26.79 207.3 2.4 226 18.4
2003-09-03 09:55:37 51°17.24 2°26.74 210 2.5 228 19.1
2003-09-03 09:56:37 51°17.22 2°26.69 216.3 2.2 238 20.7
2003-09-03 09:57:37 51°17.2 2°26.65 233.7 1.7 259 20.1
2003-09-03 09:58:37 51°17.2 2°26.6 248.2 1.8 260 20.2
2003-09-03 09:59:37 51°17.19 2°26.55 261.1 1.8 260 23.1
2003-09-03 10:00:37 51°17.19 2°26.5 274.7 1.9 267 24.3
2003-09-03 10:01:37 51°17.19 2°26.45 294 2.1 278 25.8
2003-09-03 10:02:41 51°17.2 2°26.39 322.2 2.2 295 27.5
2003-09-03 10:03:41 51°17.22 2°26.35 350.7 3.2 331 28.9
2003-09-03 10:04:45 51°17.31 2°26.3 3.4 6.9 353 30.7
2003-09-03 10:05:45 51°17.46 2°26.32 17.2 10.5 10 31.3
2003-09-03 10:06:45 51°17.66 2°26.41 25.4 12.8 18 31.7
2003-09-03 10:07:45 51°17.84 2°26.58 44.2 12.6 37 31.3
2003-09-03 10:08:45 51°18.01 2°26.78 42.7 12.6 35 31.1
2003-09-03 10:09:45 51°18.16 2°27 51.2 12.4 45 30.9
2003-09-03 10:10:45 51°18.31 2°27.24 55.3 12.5 49 31.4
2003-09-03 10:11:45 51°18.45 2°27.49 54.6 12.6 48 31.6
2003-09-03 10:12:45 51°18.58 2°27.74 57.3 12.7 53 31.1
2003-09-03 10:13:49 51°18.68 2°28.06 67.7 12.5 64 30.9
2003-09-03 10:14:49 51°18.77 2°28.37 71.9 12.6 68 30.4
2003-09-03 10:15:49 51°18.85 2°28.68 75.6 12.7 73 25.7
2003-09-03 10:16:49 51°18.87 2°29 89.2 12 86 10.3
2003-09-03 10:17:49 51°18.85 2°29.3 103.1 11.6 101 10.5
2003-09-03 10:18:49 51°18.8 2°29.6 110.2 12 112 11.5
2003-09-03 10:19:49 51°18.67 2°29.85 133.7 12.7 138 16.5
2003-09-03 10:20:49 51°18.51 2°30.08 132.8 13.2 135 25
2003-09-03 10:21:57 51°18.34 2°30.36 132.6 13.2 134 29.1
2003-09-03 10:22:59 51°18.17 2°30.62 132.5 13 136 28.4
2003-09-03 10:23:59 51°18.02 2°30.87 131.6 13.2 132 28.6
2003-09-03 10:24:59 51°17.87 2°31.11 132.2 13 135 28.3
2003-09-03 10:25:59 51°17.72 2°31.36 133 12.9 133 27.1
2003-09-03 10:27:01 51°17.56 2°31.61 132.1 13 132 25.7
2003-09-03 10:28:03 51°17.41 2°31.89 128.9 13 130 25.8
2003-09-03 10:29:01 51°17.27 2°32.13 129.4 13.1 133 23.9
2003-09-03 10:30:03 51°17.12 2°32.4 128.9 13.1 130 25.5
2003-09-03 10:31:03 51°16.98 2°32.66 131.7 13 133 23.7
2003-09-03 10:32:07 51°16.81 2°32.92 134.2 13.3 137 23.4
2003-09-03 10:33:07 51°16.66 2°33.17 135.1 13.2 134 24.7
2003-09-03 10:34:05 51°16.5 2°33.4 138 13 139 17.1
2003-09-03 10:35:05 51°16.34 2°33.61 141.4 11.4 142 8.6
2003-09-03 10:36:07 51°16.18 2°33.81 139.3 12.3 137 8.6
2003-09-03 10:37:07 51°16.02 2°34.01 143.8 12.9 144 9.9
2003-09-03 10:38:09 51°15.84 2°34.24 139.8 13.5 142 19
2003-09-03 10:39:13 51°15.65 2°34.47 138.4 13.6 142 24.6
2003-09-03 10:40:13 51°15.49 2°34.71 134.1 13.4 137 25.7
2003-09-03 10:41:13 51°15.33 2°34.96 134.8 13.4 137 25.1
2003-09-03 10:42:13 51°15.17 2°35.2 134.4 13.3 136 24.7
2003-09-03 10:43:13 51°15.01 2°35.44 134.3 13.1 136 19.1
2003-09-03 10:44:13 51°14.86 2°35.69 133.2 13.3 132 17
2003-09-03 10:45:13 51°14.7 2°35.94 134 13.2 133 15.6
2003-09-03 10:46:13 51°14.55 2°36.18 134 12.8 135 12.1
2003-09-03 10:47:13 51°14.4 2°36.42 134.2 12.4 137 9.5
2003-09-03 10:48:13 51°14.24 2°36.65 136.1 12.9 137 10.3
2003-09-03 10:49:13 51°14.08 2°36.89 133.7 13 138 14.3
2003-09-03 10:50:13 51°13.93 2°37.12 134.1 13 137 19
2003-09-03 10:51:13 51°13.77 2°37.36 140 13 145 16.8
2003-09-03 10:52:13 51°13.58 2°37.5 157.7 12.5 162 8.2
2003-09-03 10:53:13 51°13.37 2°37.55 174.5 13.3 177 8.4
2003-09-03 10:54:13 51°13.14 2°37.57 182.8 14.1 185 9.7
2003-09-03 10:55:13 51°12.91 2°37.55 179.5 14.3 184 10.8
2003-09-03 10:56:13 51°12.67 2°37.47 192.4 14.2 194 10.5
2003-09-03 10:57:19 51°12.42 2°37.37 191.9 14.5 193 9.8
2003-09-03 10:58:19 51°12.19 2°37.3 189.5 14.5 191 10.2
2003-09-03 10:59:19 51°11.95 2°37.22 190.4 14.5 191 10.7
2003-09-03 11:00:19 51°11.71 2°37.14 189.5 14.6 191 11.6
2003-09-03 11:01:19 51°11.48 2°37.06 189.7 14.4 191 12.1
2003-09-03 11:02:19 51°11.24 2°36.99 190.5 14.6 192 11.9
2003-09-03 11:03:19 51°11 2°36.91 190.7 14.4 192 11
2003-09-03 11:04:19 51°10.77 2°36.85 191.1 14.2 192 8.8
2003-09-03 11:05:19 51°10.54 2°36.84 174.3 13.2 175 7.5
2003-09-03 11:06:17 51°10.32 2°36.86 164.3 14 164 15.2
2003-09-03 11:07:17 51°10.14 2°37.05 126.9 12.6 126 17.3
2003-09-03 11:08:19 51°10.08 2°37.37 95.2 12.2 93 16.7
2003-09-03 11:09:19 51°10.07 2°37.69 93.3 12.3 92 16.1
2003-09-03 11:10:19 51°10.06 2°38.02 94 12.3 94 15.7
2003-09-03 11:11:19 51°10.05 2°38.35 94 12.4 93 15.1
2003-09-03 11:12:19 51°10.04 2°38.67 93.9 12.2 93 13.9
2003-09-03 11:13:19 51°10.03 2°39 94 12.3 93 12.8
2003-09-03 11:14:17 51°10.02 2°39.31 94.6 12.3 93 11.4
2003-09-03 11:15:17 51°10.01 2°39.6 94.3 10.1 94 10.6
2003-09-03 11:16:19 51°10.01 2°39.82 90.4 6.6 89 10.3
2003-09-03 11:17:17 51°10 2°39.97 97 4.5 101 10.1
2003-09-03 11:18:17 51°9.99 2°40 129.5 1 194 10
2003-09-03 11:19:19 51°9.97 2°39.99 147.3 1.3 203 9.8
2003-09-03 11:20:19 51°9.95 2°39.97 154.5 1.4 210 9.9
2003-09-03 11:21:19 51°9.93 2°39.95 155.4 1.9 188 9.7
2003-09-03 11:22:19 51°9.88 2°39.95 163 3.9 178 9.5
2003-09-03 11:23:19 51°9.8 2°39.97 162 4.8 173 9
2003-09-03 11:24:19 51°9.72 2°39.96 184.8 4.6 196 8.8
2003-09-03 11:25:19 51°9.66 2°39.9 214.1 4.2 221 8.5
2003-09-03 11:26:19 51°9.62 2°39.82 238.5 3.8 237 8.5
2003-09-03 11:27:19 51°9.59 2°39.74 237.3 3.6 239 8.5
2003-09-03 11:28:19 51°9.56 2°39.66 251.7 3.3 247 8.4
2003-09-03 11:29:19 51°9.54 2°39.58 263.2 3.1 255 8.4
2003-09-03 11:30:19 51°9.53 2°39.5 273.1 2.8 262 8.5
2003-09-03 11:31:19 51°9.53 2°39.43 278.3 2.7 262 8.7
2003-09-03 11:32:19 51°9.52 2°39.36 278.2 2.7 263 8.8
2003-09-03 11:33:19 51°9.51 2°39.29 275.7 2.7 260 8.8
2003-09-03 11:34:19 51°9.5 2°39.22 270.4 2.7 255 8.8
2003-09-03 11:35:19 51°9.49 2°39.15 265.4 2.7 253 8.8
2003-09-03 11:36:19 51°9.48 2°39.09 261.2 2.7 252 8.8
2003-09-03 11:37:19 51°9.46 2°39.02 259.2 2.7 250 8.9
2003-09-03 11:38:19 51°9.45 2°38.95 258.8 2.7 250 9
2003-09-03 11:39:19 51°9.43 2°38.89 258.8 2.7 250 9
2003-09-03 11:40:19 51°9.42 2°38.82 257.7 2.7 248 9
2003-09-03 11:41:19 51°9.4 2°38.75 257.6 2.7 250 9
2003-09-03 11:42:21 51°9.38 2°38.68 258.4 2.7 250 9.1
2003-09-03 11:43:19 51°9.37 2°38.62 257.2 2.7 250 9.1
2003-09-03 11:44:19 51°9.35 2°38.55 255.1 2.7 245 9.1
2003-09-03 11:45:19 51°9.34 2°38.49 254.2 2.7 244 9.1
2003-09-03 11:46:19 51°9.32 2°38.42 253.5 2.7 251 9.2
2003-09-03 11:47:19 51°9.3 2°38.36 252.7 2.6 246 9.2
2003-09-03 11:48:19 51°9.28 2°38.29 251.9 2.7 247 9.2
2003-09-03 11:49:21 51°9.26 2°38.23 252.5 2.7 243 9.2
2003-09-03 11:50:19 51°9.24 2°38.16 252.6 2.7 245 9.2
2003-09-03 11:51:19 51°9.22 2°38.1 254.4 2.6 246 9.1
2003-09-03 11:52:19 51°9.21 2°38.04 263.4 2.4 253 9.2
2003-09-03 11:53:19 51°9.2 2°37.98 271.8 2.3 255 9.1
2003-09-03 11:54:19 51°9.19 2°37.92 275.6 2.6 254 9.1
2003-09-03 11:55:19 51°9.18 2°37.85 278.8 2.7 262 9.4
2003-09-03 11:56:21 51°9.17 2°37.77 282.9 2.8 264 9.1
2003-09-03 11:57:19 51°9.17 2°37.7 286.3 2.9 266 9.4
2003-09-03 11:58:19 51°9.19 2°37.6 333 5.5 326 9.6
2003-09-03 11:59:19 51°9.26 2°37.58 20.3 3.6 3 10.2
2003-09-03 12:00:21 51°9.31 2°37.59 32.6 2.7 14 10.5
2003-09-03 12:01:19 51°9.34 2°37.62 47 2.1 36 10.7
2003-09-03 12:02:19 51°9.38 2°37.64 37.7 2.3 22 11
2003-09-03 12:03:19 51°9.41 2°37.67 51.9 2.2 45 11
2003-09-03 12:04:19 51°9.43 2°37.72 66.1 2.5 64 11.1
2003-09-03 12:05:21 51°9.44 2°37.79 71.9 2.6 72 11.1
2003-09-03 12:06:19 51°9.45 2°37.85 76 2.7 79 11
2003-09-03 12:07:19 51°9.46 2°37.92 76.3 2.7 76 10.9
2003-09-03 12:08:19 51°9.47 2°37.99 74.9 2.7 78 10.8
2003-09-03 12:09:19 51°9.48 2°38.06 81.8 2.7 85 10.7
2003-09-03 12:10:19 51°9.48 2°38.13 87.3 2.8 92 10.6
2003-09-03 12:11:19 51°9.47 2°38.21 96.4 2.9 105 10.5
2003-09-03 12:12:19 51°9.46 2°38.28 98.1 3 109 10.4
2003-09-03 12:13:19 51°9.44 2°38.36 100.1 3 111 10.2
2003-09-03 12:14:19 51°9.43 2°38.43 90.2 2.8 95 10.1
2003-09-03 12:15:19 51°9.43 2°38.5 80.2 2.7 85 10
2003-09-03 12:16:19 51°9.43 2°38.58 81.7 2.8 85 9.9
2003-09-03 12:17:19 51°9.43 2°38.65 77.4 2.8 78 9.8
2003-09-03 12:18:21 51°9.45 2°38.72 72 2.7 72 9.7
2003-09-03 12:19:21 51°9.46 2°38.79 69.2 2.7 67 9.7
2003-09-03 12:20:19 51°9.48 2°38.85 76.7 2.8 78 9.5
2003-09-03 12:21:19 51°9.48 2°38.92 78.8 2.8 80 9.6
2003-09-03 12:22:19 51°9.49 2°39 74 2.8 76 9.5
2003-09-03 12:23:21 51°9.51 2°39.07 69.6 2.8 69 9.6
2003-09-03 12:24:19 51°9.52 2°39.13 65.6 2.7 63 9.3
2003-09-03 12:25:19 51°9.55 2°39.19 61.2 2.7 58 9.4
2003-09-03 12:26:21 51°9.57 2°39.25 56.6 2.7 50 9.6
2003-09-03 12:27:19 51°9.6 2°39.31 63.6 2.8 60 9.6
2003-09-03 12:28:19 51°9.62 2°39.38 73.9 2.8 76 9.5
2003-09-03 12:29:21 51°9.62 2°39.45 84.1 2.9 86 9.6
2003-09-03 12:30:19 51°9.62 2°39.53 93.4 2.9 100 9.5
2003-09-03 12:31:19 51°9.61 2°39.6 95.8 2.8 106 9.4
2003-09-03 12:32:21 51°9.59 2°39.67 97.6 2.8 106 9.2
2003-09-03 12:33:21 51°9.58 2°39.74 88.6 2.6 95 8.9
2003-09-03 12:34:19 51°9.58 2°39.8 96.5 2.1 114 8.9
2003-09-03 12:35:19 51°9.56 2°39.85 107.5 1.8 129 8.9
2003-09-03 12:36:21 51°9.54 2°39.88 108.6 1.5 136 8.6
2003-09-03 12:37:19 51°9.53 2°39.9 103.7 1.2 139 8.6
2003-09-03 12:38:21 51°9.51 2°39.92 99.9 0.9 148 8.4
2003-09-03 12:39:19 51°9.5 2°39.93 96.7 0.7 150 8.4
2003-09-03 12:40:21 51°9.49 2°39.94 94.7 0.7 160 8.3
2003-09-03 12:41:21 51°9.49 2°39.97 78.3 4.4 73 8.3
2003-09-03 12:42:19 51°9.57 2°40.17 61.2 11.5 56 8.2
2003-09-03 12:43:19 51°9.7 2°40.4 44.5 12.3 38 8.3
2003-09-03 12:44:21 51°9.83 2°40.66 62.2 12.3 56 8.4
2003-09-03 12:45:21 51°9.95 2°40.93 64.5 12.4 62 8.6
2003-09-03 12:46:19 51°10.04 2°41.2 63.5 12.3 59 8.6
2003-09-03 12:47:21 51°10.15 2°41.5 63.9 12.4 59 8.9
2003-09-03 12:48:21 51°10.25 2°41.78 65.6 12.4 61 8.8
2003-09-03 12:49:19 51°10.35 2°42.06 66.7 12.4 63 9.2
2003-09-03 12:50:19 51°10.45 2°42.35 65.4 12.4 62 9
2003-09-03 12:51:21 51°10.55 2°42.65 65.1 12.3 60 9.3
2003-09-03 12:52:19 51°10.64 2°42.92 66 12.3 61 9.8
2003-09-03 12:53:19 51°10.74 2°43.21 66 12.2 62 10.1
2003-09-03 12:54:19 51°10.83 2°43.49 66.2 12.2 62 10.3
2003-09-03 12:55:19 51°10.92 2°43.78 67.8 12.2 64 10.6
2003-09-03 12:56:19 51°11.02 2°44.06 67.6 12.2 62 10.9
2003-09-03 12:57:19 51°11.11 2°44.35 67.2 12.3 63 11.2
2003-09-03 12:58:19 51°11.21 2°44.64 67.6 12.4 63 11.3
2003-09-03 12:59:19 51°11.3 2°44.93 67.3 12.3 62 11.5
2003-09-03 13:00:19 51°11.4 2°45.21 62.7 12.3 57 11.6
2003-09-03 13:01:19 51°11.51 2°45.49 62.5 12.2 57 12.2
2003-09-03 13:02:19 51°11.62 2°45.76 63.1 12.2 57 12.2
2003-09-03 13:03:19 51°11.72 2°46.04 65.5 12.1 61 12.7
2003-09-03 13:04:19 51°11.82 2°46.32 68 12.2 63 12.7
2003-09-03 13:05:19 51°11.91 2°46.61 67.2 12.1 63 12.6
2003-09-03 13:06:19 51°12 2°46.89 67.4 12.1 63 12.6
2003-09-03 13:07:19 51°12.09 2°47.18 67 12.1 62 12.5
2003-09-03 13:08:19 51°12.18 2°47.46 67.9 12.2 63 12.3
2003-09-03 13:09:19 51°12.28 2°47.75 67.9 12.3 64 12.5
2003-09-03 13:10:19 51°12.37 2°48.04 67.5 12.4 64 12.3
2003-09-03 13:11:19 51°12.46 2°48.34 63.3 12.4 59 12.1
2003-09-03 13:12:19 51°12.57 2°48.62 64 12.5 61 12
2003-09-03 13:13:19 51°12.67 2°48.91 64.4 12.4 60 12
2003-09-03 13:14:19 51°12.77 2°49.2 64.5 12.5 61 11.9
2003-09-03 13:15:19 51°12.88 2°49.48 64.5 12.5 61 11.8
2003-09-03 13:16:19 51°12.98 2°49.77 64.7 12.5 60 11.8
2003-09-03 13:17:19 51°13.08 2°50.06 63.7 12.5 60 11.5
2003-09-03 13:18:19 51°13.19 2°50.35 64.2 12.6 60 11.4
2003-09-03 13:19:19 51°13.29 2°50.64 66 12.6 63 11.4
2003-09-03 13:20:19 51°13.39 2°50.93 66 12.6 62 11.3
2003-09-03 13:21:19 51°13.48 2°51.23 66.2 12.6 62 11.1
2003-09-03 13:22:19 51°13.58 2°51.52 66.3 12.6 63 11.2
2003-09-03 13:23:19 51°13.68 2°51.82 66.1 12.5 63 11
2003-09-03 13:24:19 51°13.77 2°52.12 69.1 12.4 66 10.8
2003-09-03 13:25:19 51°13.85 2°52.42 70.1 12.4 67 10.7
2003-09-03 13:26:19 51°13.93 2°52.72 69 12.4 66 10.5
2003-09-03 13:27:19 51°14.02 2°53.02 69.2 12.5 66 10.2
2003-09-03 13:28:19 51°14.1 2°53.32 69.2 12.5 66 9.9
2003-09-03 13:29:19 51°14.18 2°53.63 69.6 12.4 67 9.3
2003-09-03 13:30:19 51°14.26 2°53.93 74 12.5 70 9.2
2003-09-03 13:31:19 51°14.32 2°54.25 76.3 12.5 75 9.3
2003-09-03 13:32:19 51°14.35 2°54.58 86.1 12.2 84 9.3